Terminal Aerodrome Forecast
Issued by NWS Goodland, KS

Home | Current Version | Previous Version | Text Only | Print | Product List | Glossary On
Versions: 1 2 3 4 5 6 7 8 9 10 11 12 13 14 15 16 17 18 19 20 21
000
FTUS43 KGLD 241129
TAFGLD
TAF
KGLD 241129Z 2412/2512 06008KT P6SM SCT120
     FM241800 09013KT P6SM SCT070
     FM250200 06009KT P6SM VCTS BKN060CB
     FM250500 VRB06KT P6SM BKN100=

USA.gov is the U.S. government's official web portal to all federal, state and local government web resources and services.